createdAt,value
2023-02-04T00:01:59.888Z,3.00
2023-02-04T00:04:29.314Z,3.00
2023-02-04T00:06:58.751Z,2.80
2023-02-04T00:09:28.247Z,2.90
2023-02-04T00:11:57.671Z,3.10
2023-02-04T00:14:27.112Z,3.00
2023-02-04T00:16:57.409Z,3.00
2023-02-04T00:19:26.845Z,3.20
2023-02-04T00:21:56.265Z,2.90
2023-02-04T00:24:25.788Z,3.00
2023-02-04T00:26:55.544Z,2.50
2023-02-04T00:29:25.382Z,2.60
2023-02-04T00:31:54.900Z,3.00
2023-02-04T00:34:26.822Z,2.90
2023-02-04T00:36:56.195Z,3.00
2023-02-04T00:39:26.154Z,3.10
2023-02-04T00:41:55.581Z,3.20
2023-02-04T00:44:25.018Z,3.10
2023-02-04T00:46:54.604Z,3.10
2023-02-04T00:49:24.105Z,3.10
2023-02-04T00:51:53.532Z,3.10
2023-02-04T00:54:23.068Z,3.00
2023-02-04T00:56:52.499Z,3.10
2023-02-04T00:59:24.408Z,3.00
2023-02-04T01:01:53.829Z,3.00
2023-02-04T01:04:23.599Z,2.90
2023-02-04T01:06:54.503Z,2.90
2023-02-04T01:09:23.930Z,2.80
2023-02-04T01:11:53.502Z,2.80
2023-02-04T01:14:23.400Z,2.60
2023-02-04T01:16:53.395Z,2.70
2023-02-04T01:19:24.730Z,2.80
2023-02-04T01:21:54.183Z,2.60
2023-02-04T01:24:23.598Z,2.60
2023-02-04T01:27:11.172Z,2.70
2023-02-04T01:29:40.615Z,2.70
2023-02-04T01:32:10.048Z,2.80
2023-02-04T01:34:39.706Z,2.90
2023-02-04T01:37:09.129Z,2.70
2023-02-04T01:39:38.636Z,2.70
2023-02-04T01:42:08.664Z,2.70
2023-02-04T01:44:38.167Z,2.70
2023-02-04T01:47:09.138Z,2.50
2023-02-04T01:49:38.726Z,2.50
2023-02-04T01:52:08.569Z,2.50
2023-02-04T01:54:38.354Z,2.30
2023-02-04T01:57:10.841Z,2.20
2023-02-04T01:59:42.488Z,2.20
2023-02-04T02:02:44.028Z,2.20
2023-02-04T02:05:25.142Z,2.20
2023-02-04T02:07:57.314Z,2.30
2023-02-04T02:10:27.146Z,2.40
2023-02-04T02:12:58.400Z,2.50
2023-02-04T02:15:28.794Z,2.50
2023-02-04T02:17:58.465Z,2.50
2023-02-04T02:20:29.897Z,2.50
2023-02-04T02:23:03.095Z,2.40
2023-02-04T02:25:34.358Z,2.30
2023-02-04T02:28:08.434Z,2.40
2023-02-04T02:30:39.433Z,2.40
2023-02-04T02:33:10.375Z,2.30
2023-02-04T02:35:39.806Z,2.40
2023-02-04T02:38:09.224Z,2.40
2023-02-04T02:40:39.737Z,2.30
2023-02-04T02:43:12.298Z,2.30
2023-02-04T02:45:43.499Z,2.30
2023-02-04T02:48:13.661Z,2.30
2023-02-04T02:50:44.193Z,2.20
2023-02-04T02:53:17.071Z,2.20
2023-02-04T02:55:47.864Z,2.20
2023-02-04T02:58:32.328Z,2.30
2023-02-04T03:01:06.055Z,2.40
2023-02-04T03:03:42.927Z,2.40
2023-02-04T03:06:15.713Z,2.40
2023-02-04T03:08:46.516Z,2.40
2023-02-04T03:11:16.107Z,2.40
2023-02-04T03:13:45.602Z,2.40
2023-02-04T03:16:15.238Z,2.40
2023-02-04T03:18:44.786Z,2.40
2023-02-04T03:21:14.483Z,2.40
2023-02-04T03:25:42.340Z,2.40
2023-02-04T03:28:13.451Z,2.40
2023-02-04T03:30:43.627Z,2.30
2023-02-04T03:33:13.326Z,2.30
2023-02-04T03:35:42.757Z,2.30
2023-02-04T03:38:12.268Z,2.30
2023-02-04T03:40:43.133Z,2.30
2023-02-04T03:43:12.552Z,2.30
2023-02-04T03:45:45.637Z,2.30
2023-02-04T03:48:13.370Z,2.20
2023-02-04T03:50:43.488Z,2.20
2023-02-04T03:53:13.292Z,2.20
2023-02-04T03:55:42.721Z,2.10
2023-02-04T03:58:12.748Z,2.10
2023-02-04T04:00:42.183Z,2.10
2023-02-04T04:03:11.720Z,2.10
2023-02-04T04:05:42.456Z,2.00
2023-02-04T04:08:11.954Z,1.80
2023-02-04T04:10:42.073Z,1.60
2023-02-04T04:13:12.157Z,1.50
2023-02-04T04:15:41.598Z,1.60
2023-02-04T04:18:11.039Z,1.80
2023-02-04T04:20:40.581Z,1.80
2023-02-04T04:23:10.549Z,1.70
2023-02-04T04:25:40.014Z,1.60
2023-02-04T04:28:09.790Z,1.40
2023-02-04T04:30:39.454Z,1.60
2023-02-04T04:33:09.057Z,1.60
2023-02-04T04:35:38.476Z,1.60
2023-02-04T04:38:07.205Z,1.30
2023-02-04T04:40:37.135Z,1.50
2023-02-04T04:43:05.771Z,1.50
2023-02-04T04:45:34.647Z,1.60
2023-02-04T04:48:04.537Z,1.60
2023-02-04T04:50:34.277Z,1.40
2023-02-04T04:53:04.548Z,1.40
2023-02-04T04:55:33.816Z,1.50
2023-02-04T04:58:03.239Z,1.50
2023-02-04T05:00:33.237Z,1.50
2023-02-04T05:03:05.296Z,1.60
2023-02-04T05:05:36.465Z,1.50
2023-02-04T05:08:07.636Z,1.50
2023-02-04T05:10:37.345Z,1.70
2023-02-04T05:13:06.840Z,1.60
2023-02-04T05:15:36.550Z,1.60
2023-02-04T05:18:06.302Z,1.30
2023-02-04T05:20:35.624Z,1.00
2023-02-04T05:23:06.779Z,1.20
2023-02-04T05:25:36.806Z,1.10
2023-02-04T05:28:06.698Z,1.10
2023-02-04T05:30:36.224Z,1.20
2023-02-04T05:33:05.701Z,1.40
2023-02-04T05:35:35.180Z,1.50
2023-02-04T05:38:04.696Z,1.40
2023-02-04T05:40:34.362Z,1.30
2023-02-04T05:43:05.618Z,1.40
2023-02-04T05:45:35.141Z,1.40
2023-02-04T05:48:04.792Z,1.40
2023-02-04T05:50:34.803Z,1.40
2023-02-04T05:53:12.776Z,1.30
2023-02-04T05:55:42.484Z,1.30
2023-02-04T05:58:13.090Z,1.30
2023-02-04T06:00:42.620Z,1.30
2023-02-04T06:03:13.314Z,1.30
2023-02-04T06:05:44.337Z,1.30
2023-02-04T06:08:15.447Z,1.30
2023-02-04T06:10:44.942Z,1.00
2023-02-04T06:13:14.391Z,1.20
2023-02-04T06:15:44.164Z,1.20
2023-02-04T06:18:15.073Z,1.00
2023-02-04T06:20:44.628Z,1.10
2023-02-04T06:23:14.070Z,1.20
2023-02-04T06:25:43.653Z,1.20
2023-02-04T06:28:13.528Z,1.10
2023-02-04T06:30:43.887Z,1.10
2023-02-04T06:33:12.462Z,1.10
2023-02-04T06:35:41.402Z,1.10
2023-02-04T06:38:10.727Z,1.10
2023-02-04T06:40:39.372Z,1.10
2023-02-04T06:43:08.871Z,1.10
2023-02-04T06:45:38.293Z,1.10
2023-02-04T06:48:08.643Z,1.10
2023-02-04T06:50:38.650Z,1.00
2023-02-04T06:53:08.065Z,1.10
2023-02-04T06:55:37.960Z,1.10
2023-02-04T06:58:07.870Z,0.90
2023-02-04T07:00:37.452Z,0.80
2023-02-04T07:03:07.714Z,0.90
2023-02-04T07:05:37.212Z,0.80
2023-02-04T07:08:06.704Z,0.70
2023-02-04T07:10:36.909Z,0.80
2023-02-04T07:13:06.346Z,0.80
2023-02-04T07:15:35.922Z,0.90
2023-02-04T07:18:05.543Z,0.80
2023-02-04T07:20:35.339Z,0.80
2023-02-04T07:23:06.098Z,0.90
2023-02-04T07:25:35.917Z,0.80
2023-02-04T07:28:06.675Z,0.70
2023-02-04T07:30:36.589Z,0.70
2023-02-04T07:33:06.244Z,0.80
2023-02-04T07:35:35.667Z,0.80
2023-02-04T07:38:06.922Z,0.90
2023-02-04T07:40:36.404Z,0.90
2023-02-04T07:43:07.904Z,0.90
2023-02-04T07:45:37.502Z,0.90
2023-02-04T07:48:07.300Z,0.90
2023-02-04T07:50:36.823Z,0.90
2023-02-04T07:53:06.314Z,1.00
2023-02-04T07:55:36.845Z,1.10
2023-02-04T07:58:06.405Z,1.10
2023-02-04T08:00:35.839Z,1.20
2023-02-04T08:03:05.824Z,1.60
2023-02-04T08:05:35.319Z,2.00
2023-02-04T08:08:04.771Z,2.40
2023-02-04T08:10:34.487Z,2.90
2023-02-04T08:13:04.153Z,3.30
2023-02-04T08:15:33.586Z,4.00
2023-02-04T08:18:03.072Z,4.50
2023-02-04T08:20:33.991Z,5.20
2023-02-04T08:23:04.230Z,5.70
2023-02-04T08:25:33.664Z,6.00
2023-02-04T08:28:03.810Z,6.50
2023-02-04T08:30:34.605Z,7.00
2023-02-04T08:33:04.400Z,7.30
2023-02-04T08:35:33.094Z,7.50
2023-02-04T08:38:02.675Z,7.80
2023-02-04T08:40:32.358Z,8.00
2023-02-04T08:43:02.113Z,8.40
2023-02-04T08:45:32.436Z,8.30
2023-02-04T08:48:03.135Z,8.90
2023-02-04T08:50:32.875Z,8.50
2023-02-04T08:53:03.563Z,8.20
2023-02-04T08:55:32.991Z,7.90
2023-02-04T08:58:03.893Z,8.60
2023-02-04T09:00:33.749Z,9.10
2023-02-04T09:03:04.154Z,9.00
2023-02-04T09:05:33.640Z,9.50
2023-02-04T09:08:03.457Z,9.50
2023-02-04T09:10:33.105Z,10.00
2023-02-04T09:13:03.778Z,9.50
2023-02-04T09:15:33.418Z,9.80
2023-02-04T09:18:04.509Z,9.40
2023-02-04T09:20:35.650Z,10.00
2023-02-04T09:23:04.786Z,10.10
2023-02-04T09:25:34.208Z,10.30
2023-02-04T09:28:03.781Z,10.70
2023-02-04T09:30:33.926Z,10.40
2023-02-04T09:33:05.146Z,10.70
2023-02-04T09:35:34.863Z,11.30
2023-02-04T09:38:04.847Z,11.50
2023-02-04T09:40:37.556Z,11.80
2023-02-04T09:43:07.815Z,11.70
2023-02-04T09:45:37.738Z,11.80
2023-02-04T09:48:10.383Z,11.90
2023-02-04T09:50:39.944Z,12.20
2023-02-04T09:53:12.635Z,13.20
2023-02-04T09:55:44.799Z,12.60
2023-02-04T09:58:20.073Z,12.80
2023-02-04T10:00:52.590Z,12.70
2023-02-04T10:03:23.507Z,12.90
2023-02-04T10:05:53.854Z,13.40
2023-02-04T10:08:26.413Z,13.50
2023-02-04T10:10:58.088Z,13.60
2023-02-04T10:13:41.561Z,14.40
2023-02-04T10:16:23.740Z,14.40
2023-02-04T10:18:53.456Z,13.80
2023-02-04T10:21:25.700Z,13.90
2023-02-04T10:24:00.766Z,13.80
2023-02-04T10:26:33.495Z,13.80
2023-02-04T10:29:09.983Z,13.90
2023-02-04T10:31:43.481Z,14.10
2023-02-04T10:34:21.645Z,13.90
2023-02-04T10:36:54.154Z,13.80
2023-02-04T10:39:30.619Z,13.60
2023-02-04T10:42:01.492Z,14.30
2023-02-04T10:44:34.211Z,13.90
2023-02-04T10:47:09.937Z,14.30
2023-02-04T10:49:40.501Z,14.50
2023-02-04T10:52:18.934Z,14.30
2023-02-04T10:54:49.726Z,14.20
2023-02-04T10:57:25.427Z,14.00
2023-02-04T11:00:01.414Z,14.50
2023-02-04T11:02:43.213Z,14.00
2023-02-04T11:05:15.921Z,14.20
2023-02-04T11:07:46.778Z,14.10
2023-02-04T11:10:19.361Z,14.40
2023-02-04T11:12:57.548Z,13.70
2023-02-04T11:15:49.849Z,13.70
2023-02-04T11:18:28.017Z,13.30
2023-02-04T11:21:00.067Z,13.10
2023-02-04T11:23:32.641Z,13.50
2023-02-04T11:26:10.943Z,13.00
2023-02-04T11:28:43.442Z,12.50
2023-02-04T11:31:24.704Z,13.30
2023-02-04T11:34:21.773Z,13.90
2023-02-04T11:37:00.386Z,13.80
2023-02-04T11:39:49.501Z,13.60
2023-02-04T11:42:26.157Z,14.30
2023-02-04T11:45:02.060Z,14.20
2023-02-04T11:47:37.824Z,14.10
2023-02-04T11:50:14.032Z,14.30
2023-02-04T11:52:43.940Z,14.50
2023-02-04T11:55:14.198Z,14.10
2023-02-04T11:57:45.082Z,13.60
2023-02-04T12:00:17.730Z,14.20
2023-02-04T12:02:47.702Z,13.60
2023-02-04T12:05:20.592Z,13.90
2023-02-04T12:07:50.528Z,13.90
2023-02-04T12:10:27.402Z,13.90
2023-02-04T12:13:02.018Z,13.90
2023-02-04T12:15:36.766Z,14.10
2023-02-04T12:18:16.635Z,13.70
2023-02-04T12:20:46.066Z,14.10
2023-02-04T12:23:15.496Z,13.40
2023-02-04T12:25:45.014Z,13.50
2023-02-04T12:28:16.478Z,13.50
2023-02-04T12:30:46.191Z,13.40
2023-02-04T12:33:17.539Z,13.10
2023-02-04T12:35:47.641Z,13.30
2023-02-04T12:38:18.045Z,13.30
2023-02-04T12:40:48.214Z,13.20
2023-02-04T12:43:17.635Z,12.90
2023-02-04T12:45:49.742Z,12.70
2023-02-04T12:48:20.914Z,12.70
2023-02-04T12:50:50.545Z,12.40
2023-02-04T12:53:19.966Z,12.50
2023-02-04T12:55:50.136Z,12.50
2023-02-04T12:58:19.924Z,12.50
2023-02-04T13:00:49.416Z,12.50
2023-02-04T13:03:20.610Z,12.20
2023-02-04T13:05:50.131Z,12.10
2023-02-04T13:08:19.557Z,11.90
2023-02-04T13:10:50.858Z,11.80
2023-02-04T13:13:23.115Z,11.80
2023-02-04T13:15:52.769Z,11.80
2023-02-04T13:18:22.329Z,11.50
2023-02-04T13:20:51.766Z,11.50
2023-02-04T13:23:21.534Z,11.60
2023-02-04T13:25:50.961Z,11.50
2023-02-04T13:28:21.294Z,11.50
2023-02-04T13:30:50.780Z,11.30
2023-02-04T13:33:20.372Z,11.20
2023-02-04T13:35:49.902Z,11.10
2023-02-04T13:38:19.451Z,11.10
2023-02-04T13:40:50.077Z,11.00
2023-02-04T13:43:19.676Z,11.00
2023-02-04T13:45:49.275Z,11.00
2023-02-04T13:48:19.018Z,10.70
2023-02-04T13:50:49.335Z,10.90
2023-02-04T13:53:18.824Z,10.90
2023-02-04T13:55:47.945Z,10.90
2023-02-04T13:58:17.287Z,11.00
2023-02-04T14:00:47.116Z,11.00
2023-02-04T14:03:17.309Z,11.00
2023-02-04T14:05:46.712Z,11.00
2023-02-04T14:08:16.152Z,10.80
2023-02-04T14:10:45.614Z,10.90
2023-02-04T14:13:16.260Z,10.80
2023-02-04T14:15:45.748Z,10.70
2023-02-04T14:18:16.845Z,10.80
2023-02-04T14:20:47.819Z,10.70
2023-02-04T14:23:17.302Z,10.60
2023-02-04T14:25:46.829Z,10.60
2023-02-04T14:28:16.329Z,10.60
2023-02-04T14:30:45.883Z,10.60
2023-02-04T14:33:17.664Z,10.40
2023-02-04T14:35:47.166Z,10.30
2023-02-04T14:38:18.046Z,10.30
2023-02-04T14:40:47.668Z,10.30
2023-02-04T14:43:17.085Z,10.20
2023-02-04T14:45:46.586Z,10.10
2023-02-04T14:48:16.082Z,10.10
2023-02-04T14:50:45.595Z,10.00
2023-02-04T14:53:15.919Z,10.00
2023-02-04T14:55:45.358Z,10.00
2023-02-04T14:58:14.783Z,9.90
2023-02-04T15:00:44.246Z,9.90
2023-02-04T15:03:13.665Z,9.90
2023-02-04T15:05:43.761Z,10.00
2023-02-04T15:08:13.955Z,9.90
2023-02-04T15:10:43.467Z,9.90
2023-02-04T15:13:15.482Z,9.80
2023-02-04T15:15:44.922Z,9.80
2023-02-04T15:18:14.333Z,9.70
2023-02-04T15:20:44.072Z,9.80
2023-02-04T15:23:15.126Z,9.80
2023-02-04T15:25:44.660Z,9.90
2023-02-04T15:28:14.304Z,9.80
2023-02-04T15:30:43.842Z,9.80
2023-02-04T15:33:14.569Z,9.70
2023-02-04T15:35:45.080Z,9.70
2023-02-04T15:38:15.497Z,9.70
2023-02-04T15:40:44.905Z,9.60
2023-02-04T15:43:15.536Z,9.60
2023-02-04T15:45:44.948Z,9.60
2023-02-04T15:48:14.844Z,9.60
2023-02-04T15:50:45.149Z,9.60
2023-02-04T15:53:14.673Z,9.60
2023-02-04T15:55:44.268Z,9.50
2023-02-04T15:58:15.879Z,9.60
2023-02-04T16:00:45.376Z,9.50
2023-02-04T16:03:14.851Z,9.50
2023-02-04T16:05:45.256Z,9.50
2023-02-04T16:08:14.735Z,9.40
2023-02-04T16:10:44.339Z,9.40
2023-02-04T16:13:13.784Z,9.30
2023-02-04T16:15:43.249Z,9.30
2023-02-04T16:18:14.543Z,9.30
2023-02-04T16:20:44.036Z,9.20
2023-02-04T16:23:13.442Z,9.20
2023-02-04T16:25:43.348Z,9.20
2023-02-04T16:28:12.800Z,9.10
2023-02-04T16:30:42.286Z,9.10
2023-02-04T16:33:11.877Z,9.00
2023-02-04T16:36:02.444Z,9.00
2023-02-04T16:38:32.697Z,8.90
2023-02-04T16:41:02.390Z,8.90
2023-02-04T16:43:32.253Z,8.80
2023-02-04T16:46:01.669Z,8.80
2023-02-04T16:48:31.092Z,8.70
2023-02-04T16:51:00.590Z,8.70
2023-02-04T16:53:30.020Z,8.60
2023-02-04T16:55:59.497Z,8.60
2023-02-04T16:58:29.212Z,8.50
2023-02-04T17:01:00.031Z,8.50
2023-02-04T17:03:30.069Z,8.40
2023-02-04T17:06:00.152Z,8.40
2023-02-04T17:08:29.644Z,8.40
2023-02-04T17:11:17.438Z,8.30
2023-02-04T17:13:46.875Z,8.30
2023-02-04T17:16:17.992Z,8.20
2023-02-04T17:18:47.573Z,8.10
2023-02-04T17:21:17.070Z,8.10
2023-02-04T17:23:46.639Z,8.00
2023-02-04T17:26:17.426Z,8.00
2023-02-04T17:28:47.335Z,7.90
2023-02-04T17:31:18.145Z,7.90
2023-02-04T17:33:48.327Z,7.80
2023-02-04T17:36:17.877Z,7.80
2023-02-04T17:38:47.305Z,7.80
2023-02-04T17:41:18.994Z,7.70
2023-02-04T17:43:48.523Z,7.70
2023-02-04T17:46:17.973Z,7.60
2023-02-04T17:48:47.873Z,7.60
2023-02-04T17:51:19.131Z,7.60
2023-02-04T17:53:48.801Z,7.60
2023-02-04T17:56:18.236Z,7.60
2023-02-04T17:58:47.798Z,7.50
2023-02-04T18:01:21.963Z,7.50
2023-02-04T18:03:52.852Z,7.40
2023-02-04T18:06:29.276Z,7.40
2023-02-04T18:09:03.247Z,7.40
2023-02-04T18:11:35.910Z,7.40
2023-02-04T18:14:31.488Z,7.30
2023-02-04T18:17:01.505Z,7.20
2023-02-04T18:19:38.803Z,7.30
2023-02-04T18:22:14.620Z,7.20
2023-02-04T18:24:48.544Z,7.20
2023-02-04T18:27:23.892Z,7.20
2023-02-04T18:29:55.664Z,7.10
2023-02-04T18:33:27.968Z,7.20
2023-02-04T18:36:02.882Z,7.20
2023-02-04T18:38:37.252Z,7.10
2023-02-04T18:41:21.067Z,7.10
2023-02-04T18:43:55.963Z,7.00
2023-02-04T18:46:31.114Z,7.00
2023-02-04T18:49:03.909Z,7.00
2023-02-04T18:51:36.423Z,6.90
2023-02-04T18:54:12.376Z,6.90
2023-02-04T18:56:42.093Z,6.90
2023-02-04T18:59:17.970Z,6.90
2023-02-04T19:01:49.018Z,6.80
2023-02-04T19:04:26.874Z,6.80
2023-02-04T19:06:56.967Z,6.90
2023-02-04T19:09:31.585Z,6.80
2023-02-04T19:12:03.922Z,6.70
2023-02-04T19:14:41.884Z,6.70
2023-02-04T19:17:29.202Z,6.70
2023-02-04T19:20:03.024Z,6.60
2023-02-04T19:22:45.686Z,6.60
2023-02-04T19:25:36.773Z,6.50
2023-02-04T19:28:29.345Z,6.50
2023-02-04T19:31:04.816Z,6.60
2023-02-04T19:33:44.913Z,6.50
2023-02-04T19:36:41.272Z,6.50
2023-02-04T19:39:40.412Z,6.50
2023-02-04T19:42:34.791Z,6.40
2023-02-04T19:45:21.658Z,6.30
2023-02-04T19:47:56.766Z,6.20
2023-02-04T19:50:31.058Z,6.20
2023-02-04T19:53:06.607Z,6.20
2023-02-04T19:55:51.318Z,6.20
2023-02-04T19:58:24.194Z,6.20
2023-02-04T20:01:03.331Z,6.20
2023-02-04T20:03:38.833Z,6.20
2023-02-04T20:06:18.253Z,6.20
2023-02-04T20:08:59.234Z,6.20
2023-02-04T20:11:35.149Z,6.10
2023-02-04T20:14:18.006Z,6.10
2023-02-04T20:17:00.422Z,6.10
2023-02-04T20:19:34.512Z,6.10
2023-02-04T20:22:23.419Z,6.00
2023-02-04T20:24:56.028Z,6.10
2023-02-04T20:27:28.361Z,6.00
2023-02-04T20:30:17.213Z,6.00
2023-02-04T20:32:49.549Z,6.00
2023-02-04T20:35:23.202Z,5.90
2023-02-04T20:37:58.306Z,5.90
2023-02-04T20:40:38.724Z,5.90
2023-02-04T20:43:21.053Z,5.90
2023-02-04T20:46:07.406Z,5.90
2023-02-04T20:48:38.892Z,5.80
2023-02-04T20:51:14.211Z,5.80
2023-02-04T20:53:57.790Z,5.80
2023-02-04T20:56:37.493Z,5.70
2023-02-04T20:59:24.926Z,5.80
2023-02-04T21:01:56.049Z,5.70
2023-02-04T21:04:34.420Z,5.60
2023-02-04T21:07:18.925Z,5.60
2023-02-04T21:09:49.257Z,5.60
2023-02-04T21:12:19.319Z,5.60
2023-02-04T21:14:48.796Z,5.60
2023-02-04T21:17:18.211Z,5.60
2023-02-04T21:19:48.114Z,5.50
2023-02-04T21:22:17.525Z,5.60
2023-02-04T21:24:47.021Z,5.60
2023-02-04T21:27:18.203Z,5.50
2023-02-04T21:29:47.597Z,5.60
2023-02-04T21:32:18.800Z,5.50
2023-02-04T21:34:48.803Z,5.60
2023-02-04T21:37:18.224Z,5.60
2023-02-04T21:39:47.654Z,5.50
2023-02-04T21:42:17.958Z,5.50
2023-02-04T21:44:47.376Z,5.60
2023-02-04T21:47:18.791Z,5.50
2023-02-04T21:49:48.202Z,5.40
2023-02-04T21:52:17.634Z,5.40
2023-02-04T21:54:47.860Z,5.40
2023-02-04T21:57:17.280Z,5.40
2023-02-04T21:59:48.478Z,5.40
2023-02-04T22:02:18.026Z,5.40
2023-02-04T22:04:47.534Z,5.40
2023-02-04T22:07:16.953Z,5.50
2023-02-04T22:09:49.851Z,5.50
2023-02-04T22:12:20.197Z,5.60
2023-02-04T22:15:07.952Z,5.60
2023-02-04T22:17:37.598Z,5.60
2023-02-04T22:20:11.496Z,5.60
2023-02-04T22:22:40.923Z,5.70
2023-02-04T22:25:10.947Z,5.70
2023-02-04T22:27:40.391Z,5.70
2023-02-04T22:30:13.043Z,5.60
2023-02-04T22:32:42.608Z,5.60
2023-02-04T22:35:14.021Z,5.60
2023-02-04T22:37:44.281Z,5.60
2023-02-04T22:40:14.445Z,5.60
2023-02-04T22:42:43.947Z,5.50
2023-02-04T22:45:13.377Z,5.50
2023-02-04T22:47:43.197Z,5.50
2023-02-04T22:50:13.336Z,5.40
2023-02-04T22:52:43.913Z,5.50
2023-02-04T22:55:13.728Z,5.40
2023-02-04T22:57:43.167Z,5.40
2023-02-04T23:00:14.817Z,5.40
